Time;durP1;ratioP1;P1;durP2;ratioP2;P2;SDS_P1;SDS_P2;PMS_P1;PMS_P2;Temp;Humidity;BMP_temperature;BMP_pressure;BME280_temperature;BME280_humidity;BME280_pressure;Samples;Min_cycle;Max_cycle;Signal;HPM_P1;HPM_P2
2022/07/18 00:02:17;;;;;;;0.42;0.42;;;;;;;14.23;82.06;100740.17;1615383;85;21099;-68
2022/07/18 00:04:44;;;;;;;3.95;0.30;;;;;;;14.20;82.14;100743.58;1620513;87;21083;-68
2022/07/18 00:07:12;;;;;;;0.85;0.40;;;;;;;14.18;82.29;100744.30;1622160;87;21039;-69
2022/07/18 00:09:43;;;;;;;0.95;0.20;;;;;;;14.17;82.59;100743.16;1617418;87;21131;-68
2022/07/18 00:12:11;;;;;;;0.20;0.20;;;;;;;14.16;82.84;100748.19;1637585;84;20985;-68
2022/07/18 00:14:38;;;;;;;0.60;0.47;;;;;;;14.16;83.01;100746.84;1660066;84;21041;-68
2022/07/18 00:17:07;;;;;;;1.32;0.35;;;;;;;14.14;83.32;100744.88;1666954;84;21061;-68
2022/07/18 00:19:36;;;;;;;2.08;0.30;;;;;;;14.12;83.37;100742.40;1667523;84;21033;-68
2022/07/18 00:22:04;;;;;;;1.32;0.35;;;;;;;14.07;83.58;100742.20;1667524;84;21045;-70
2022/07/18 00:24:32;;;;;;;0.95;0.20;;;;;;;14.04;84.14;100739.09;1672765;84;21110;-68
2022/07/18 00:26:59;;;;;;;;;;;;;;;13.94;84.89;100745.66;1667533;84;21104;-68
2022/07/18 00:29:26;;;;;;;1.80;0.30;;;;;;;13.89;84.88;100742.74;1662248;84;20284;-68
2022/07/18 00:31:52;;;;;;;1.02;0.30;;;;;;;13.80;85.23;100747.44;1667797;84;21493;-68
2022/07/18 00:34:20;;;;;;;0.20;0.20;;;;;;;13.82;85.25;100745.41;1648833;84;21684;-68
2022/07/18 00:36:47;;;;;;;;;;;;;;;13.83;85.27;100746.23;1677297;83;21031;-69
2022/07/18 00:39:14;;;;;;;0.62;0.30;;;;;;;13.80;85.51;100747.44;1660736;85;20493;-68
2022/07/18 00:41:47;;;;;;;0.20;0.20;;;;;;;13.73;85.99;100749.77;1667555;84;21138;-68
2022/07/18 00:44:20;;;;;;;0.88;0.30;;;;;;;13.70;86.19;100752.88;1683698;84;21041;-69
2022/07/18 00:46:49;;;;;;;2.58;0.40;;;;;;;13.67;86.23;100751.39;1671587;85;20974;-68
2022/07/18 00:49:15;;;;;;;3.72;0.37;;;;;;;13.66;86.42;100756.45;1654062;85;21057;-69
2022/07/18 00:51:41;;;;;;;;;;;;;;;13.63;86.78;100760.34;1667825;84;20979;-69
2022/07/18 00:54:08;;;;;;;1.07;0.20;;;;;;;13.62;86.82;100757.88;1692119;84;20166;-69
2022/07/18 00:56:35;;;;;;;4.80;0.80;;;;;;;13.56;87.29;100759.50;1669859;84;21066;-69
2022/07/18 00:59:03;;;;;;;0.30;0.20;;;;;;;13.56;87.74;100762.17;1657676;85;21036;-69
2022/07/18 01:01:42;;;;;;;0.55;0.45;;;;;;;13.55;87.51;100763.19;1659132;84;21474;-68
2022/07/18 01:04:11;;;;;;;4.87;0.75;;;;;;;13.55;87.67;100763.19;1679823;84;20986;-68
2022/07/18 01:06:39;;;;;;;0.53;0.40;;;;;;;13.54;87.80;100760.70;1677775;84;21023;-68
2022/07/18 01:09:07;;;;;;;0.75;0.57;;;;;;;13.53;87.93;100765.76;1670124;85;21119;-68
2022/07/18 01:11:35;;;;;;;1.15;0.57;;;;;;;13.50;88.21;100763.47;1670654;85;22617;-68
2022/07/18 01:14:04;;;;;;;0.50;0.50;;;;;;;13.47;88.11;100767.86;1670291;84;21562;-69
2022/07/18 01:16:31;;;;;;;2.10;0.40;;;;;;;13.45;88.43;100768.09;1670415;84;21025;-69
2022/07/18 01:18:58;;;;;;;0.30;0.30;;;;;;;13.42;88.40;100765.27;1663472;84;21042;-68
2022/07/18 01:21:24;;;;;;;;;;;;;;;13.42;88.67;100761.25;1666130;84;21120;-68
2022/07/18 01:23:51;;;;;;;1.40;0.47;;;;;;;13.41;88.59;100767.65;1664904;85;20262;-68
2022/07/18 01:26:18;;;;;;;0.78;0.40;;;;;;;13.32;89.07;100778.71;1651800;86;21102;-69
2022/07/18 01:28:45;;;;;;;1.85;0.53;;;;;;;13.29;89.28;100779.87;1651215;86;21098;-68
2022/07/18 01:31:13;;;;;;;2.77;0.40;;;;;;;13.29;89.60;100785.23;1652479;86;21052;-68
2022/07/18 01:33:42;;;;;;;0.62;0.47;;;;;;;13.30;89.73;100779.36;1651610;85;21040;-68
2022/07/18 01:36:08;;;;;;;1.27;0.40;;;;;;;13.28;89.84;100782.74;1646531;86;21551;-68
2022/07/18 01:38:36;;;;;;;2.27;0.40;;;;;;;13.25;90.06;100784.79;1645883;86;21031;-68
2022/07/18 01:41:03;;;;;;;1.95;0.60;;;;;;;13.25;90.23;100787.98;1644659;86;21573;-68
2022/07/18 01:43:31;;;;;;;0.50;0.40;;;;;;;13.25;90.08;100789.33;1649952;86;21476;-68
2022/07/18 01:45:58;;;;;;;2.60;0.80;;;;;;;13.23;90.43;100781.48;1647005;85;20998;-68
2022/07/18 01:48:25;;;;;;;1.65;0.45;;;;;;;13.21;90.39;100777.36;1646512;85;21475;-68
2022/07/18 01:50:52;;;;;;;0.40;0.28;;;;;;;13.18;90.83;100777.73;1646755;87;21188;-67
2022/07/18 01:53:20;;;;;;;2.67;0.37;;;;;;;13.17;90.91;100778.78;1640222;85;21507;-68
2022/07/18 01:55:47;;;;;;;0.40;0.40;;;;;;;13.15;91.05;100776.81;1636776;85;21019;-70
2022/07/18 01:58:13;;;;;;;0.50;0.42;;;;;;;13.12;91.10;100782.02;1689220;83;21123;-68
2022/07/18 02:00:39;;;;;;;0.60;0.60;;;;;;;13.12;91.07;100782.02;1684610;83;20995;-67
2022/07/18 02:03:05;;;;;;;0.60;0.60;;;;;;;13.12;91.19;100791.91;1691149;83;21010;-68
2022/07/18 02:05:32;;;;;;;0.90;0.65;;;;;;;13.13;91.26;100790.87;1694650;83;20994;-68
2022/07/18 02:07:58;;;;;;;0.40;0.40;;;;;;;13.10;91.29;100792.09;1690600;83;21061;-69
2022/07/18 02:10:24;;;;;;;1.27;0.40;;;;;;;13.10;91.50;100793.95;1694435;83;21601;-69
2022/07/18 02:12:50;;;;;;;0.53;0.40;;;;;;;13.09;91.43;100797.63;1690408;83;21061;-69
2022/07/18 02:15:17;;;;;;;0.90;0.50;;;;;;;13.09;91.51;100807.00;1697998;84;21153;-67
2022/07/18 02:17:44;;;;;;;2.33;0.42;;;;;;;13.05;91.59;100798.04;1695853;84;22267;-68
2022/07/18 02:20:13;;;;;;;2.50;0.68;;;;;;;13.07;91.58;100798.34;1678731;84;21010;-68
2022/07/18 02:22:40;;;;;;;1.57;0.65;;;;;;;13.07;91.57;100794.33;1695798;83;21525;-67
2022/07/18 02:25:09;;;;;;;1.85;0.42;;;;;;;13.10;91.58;100792.61;1694589;84;20975;-67
2022/07/18 02:27:38;;;;;;;0.65;0.40;;;;;;;13.12;91.42;100795.92;1687537;83;21042;-69
2022/07/18 02:30:06;;;;;;;;;;;;;;;13.13;91.42;100805.09;1679827;83;21577;-68
2022/07/18 02:32:32;;;;;;;0.50;0.40;;;;;;;13.15;91.31;100803.58;1692139;83;20157;-67
2022/07/18 02:34:59;;;;;;;0.68;0.68;;;;;;;13.09;91.48;100805.17;1684996;82;21509;-68
2022/07/18 02:37:25;;;;;;;0.80;0.40;;;;;;;13.08;91.45;100804.02;1702276;82;21038;-67
2022/07/18 02:39:52;;;;;;;0.75;0.45;;;;;;;13.08;91.44;100805.36;1694812;82;21141;-68
2022/07/18 02:42:18;;;;;;;0.60;0.33;;;;;;;13.08;91.35;100809.38;1693346;82;21039;-68
2022/07/18 02:44:45;;;;;;;1.80;0.57;;;;;;;13.07;91.35;100805.84;1692755;82;20991;-69
2022/07/18 02:47:11;;;;;;;0.50;0.42;;;;;;;13.10;91.47;100800.64;1673453;85;21018;-68
2022/07/18 02:49:39;;;;;;;2.20;0.50;;;;;;;13.13;91.38;100801.57;1695351;83;21056;-68
2022/07/18 02:52:08;;;;;;;1.67;0.50;;;;;;;13.19;91.44;100803.50;1700632;83;21090;-68
2022/07/18 02:54:37;;;;;;;1.07;0.30;;;;;;;13.23;91.01;100803.42;1696712;83;21075;-67
2022/07/18 02:57:05;;;;;;;4.08;0.88;;;;;;;13.26;91.04;100811.08;1701613;82;21552;-68
2022/07/18 02:59:32;;;;;;;1.15;0.45;;;;;;;13.33;90.84;100811.95;1713472;82;21018;-67
2022/07/18 03:02:01;;;;;;;0.60;0.40;;;;;;;13.57;91.08;100814.70;1698263;82;21141;-68
2022/07/18 03:04:27;;;;;;;0.55;0.50;;;;;;;14.04;89.80;100817.64;1683734;83;21085;-68
2022/07/18 03:06:54;;;;;;;0.45;0.33;;;;;;;14.65;87.54;100822.71;1691946;84;21042;-68
2022/07/18 03:09:21;;;;;;;0.50;0.42;;;;;;;15.24;83.61;100812.55;1691394;83;21094;-68
2022/07/18 03:11:47;;;;;;;0.90;0.65;;;;;;;15.85;80.39;100811.95;1697650;82;21049;-69
2022/07/18 03:14:14;;;;;;;0.35;0.35;;;;;;;16.42;76.33;100815.63;1702094;82;21074;-68
2022/07/18 03:16:42;;;;;;;0.65;0.23;;;;;;;16.86;73.75;100819.33;1715059;83;21113;-68
2022/07/18 03:19:08;;;;;;;2.00;0.35;;;;;;;17.26;71.70;100820.36;1714868;82;20931;-67
2022/07/18 03:21:36;;;;;;;0.75;0.40;;;;;;;17.63;69.67;100825.83;1661749;85;21010;-68
2022/07/18 03:24:02;;;;;;;;;;;;;;;17.93;67.79;100826.97;1708722;81;21503;-68
2022/07/18 03:26:28;;;;;;;2.87;0.40;;;;;;;18.21;66.08;100823.73;1693124;83;20153;-69
2022/07/18 03:28:55;;;;;;;0.90;0.28;;;;;;;18.25;65.75;100828.46;1693659;83;21078;-68
2022/07/18 03:31:22;;;;;;;1.42;0.40;;;;;;;18.48;65.24;100833.13;1691822;83;21018;-68
2022/07/18 03:33:48;;;;;;;1.30;0.20;;;;;;;18.64;63.51;100828.14;1692181;83;21066;-69
2022/07/18 03:36:14;;;;;;;0.37;0.30;;;;;;;18.64;63.31;100824.91;1695652;83;21581;-69
2022/07/18 03:38:42;;;;;;;0.70;0.35;;;;;;;18.82;63.18;100829.46;1688734;83;21041;-68
2022/07/18 03:41:11;;;;;;;1.17;0.30;;;;;;;19.11;62.28;100827.46;1691350;83;21007;-68
2022/07/18 03:43:39;;;;;;;0.25;0.20;;;;;;;19.44;60.56;100835.83;1691526;83;21033;-68
2022/07/18 03:46:07;;;;;;;3.90;0.50;;;;;;;19.68;59.59;100839.05;1685868;83;20983;-68
2022/07/18 03:48:35;;;;;;;0.98;0.20;;;;;;;19.85;59.41;100835.92;1695696;83;21522;-69
2022/07/18 03:51:02;;;;;;;2.52;0.30;;;;;;;19.99;58.21;100833.80;1693502;83;21030;-69
2022/07/18 03:53:30;;;;;;;0.53;0.20;;;;;;;20.13;58.18;100837.87;1657665;85;21184;-68
2022/07/18 03:55:56;;;;;;;0.40;0.40;;;;;;;20.45;57.57;100837.95;1696538;81;21115;-68
2022/07/18 03:58:23;;;;;;;1.57;0.20;;;;;;;20.75;55.44;100837.17;1691813;83;21063;-68
2022/07/18 04:00:49;;;;;;;0.62;0.20;;;;;;;20.84;55.36;100837.61;1692135;83;21491;-69
2022/07/18 04:03:17;;;;;;;0.42;0.30;;;;;;;20.89;54.99;100835.51;1695461;84;21085;-69
2022/07/18 04:05:45;;;;;;;1.02;0.28;;;;;;;20.96;54.56;100838.89;1697009;83;21494;-68
2022/07/18 04:08:12;;;;;;;0.40;0.35;;;;;;;21.11;53.82;100838.32;1692937;84;21073;-69
2022/07/18 04:10:39;;;;;;;2.20;0.20;;;;;;;21.46;53.17;100838.09;1685301;84;21013;-68
2022/07/18 04:13:08;;;;;;;0.42;0.20;;;;;;;21.81;52.23;100830.16;1707465;82;20987;-69
2022/07/18 04:15:36;;;;;;;0.60;0.20;;;;;;;22.14;50.44;100831.13;1712347;82;21050;-68
2022/07/18 04:18:04;;;;;;;2.17;0.20;;;;;;;22.33;49.79;100823.49;1719939;82;21434;-68
2022/07/18 04:20:31;;;;;;;0.30;0.10;;;;;;;22.54;48.77;100832.12;1708898;82;20963;-68
2022/07/18 04:23:01;;;;;;;1.35;0.17;;;;;;;22.71;48.24;100826.58;1707328;82;21092;-67
2022/07/18 04:25:34;;;;;;;0.85;0.20;;;;;;;22.84;47.72;100830.78;1693365;83;21054;-68
2022/07/18 04:28:00;;;;;;;0.95;0.10;;;;;;;22.94;47.39;100830.89;1685803;83;21123;-68
2022/07/18 04:30:27;;;;;;;1.42;0.10;;;;;;;23.12;46.64;100835.67;1696663;84;21411;-68
2022/07/18 04:32:55;;;;;;;2.55;0.13;;;;;;;23.24;46.63;100830.86;1692245;83;21897;-68
2022/07/18 04:35:23;;;;;;;0.90;0.20;;;;;;;23.18;45.99;100835.98;1690797;83;21001;-69
2022/07/18 04:37:50;;;;;;;0.20;0.20;;;;;;;22.87;46.77;100838.98;1684389;83;21608;-69
2022/07/18 04:40:17;;;;;;;0.40;0.20;;;;;;;22.71;47.54;100834.73;1687580;83;21005;-70
2022/07/18 04:42:45;;;;;;;0.45;0.20;;;;;;;22.78;47.56;100839.97;1689040;83;22170;-70
2022/07/18 04:45:12;;;;;;;2.05;0.15;;;;;;;22.89;47.27;100845.78;1692784;83;21450;-70
2022/07/18 04:47:39;;;;;;;0.20;0.20;;;;;;;22.76;47.46;100845.40;1649981;86;21020;-70
2022/07/18 04:50:07;;;;;;;1.92;0.10;;;;;;;22.76;47.70;100839.41;1692444;83;21151;-70
2022/07/18 04:52:43;;;;;;;0.65;0.10;;;;;;;22.93;46.88;100844.73;1695079;83;21522;-69
2022/07/18 04:55:10;;;;;;;0.85;0.15;;;;;;;22.96;46.97;100849.63;1685553;82;21062;-69
2022/07/18 04:57:39;;;;;;;2.58;0.23;;;;;;;22.87;47.82;100844.41;1683448;83;21145;-69
2022/07/18 05:00:13;;;;;;;2.02;0.20;;;;;;;22.82;47.07;100840.28;1682758;83;21107;-68
2022/07/18 05:02:43;;;;;;;0.30;0.30;;;;;;;22.67;47.70;100838.23;1694493;83;21017;-70
2022/07/18 05:05:12;;;;;;;0.60;0.20;;;;;;;22.53;47.68;100840.01;1655455;85;21004;-69
2022/07/18 05:07:42;;;;;;;0.37;0.20;;;;;;;22.29;48.29;100839.47;1681137;83;21146;-70
2022/07/18 05:10:11;;;;;;;0.88;0.30;;;;;;;22.11;49.11;100841.96;1695452;83;21053;-69
2022/07/18 05:12:41;;;;;;;1.57;0.42;;;;;;;22.00;49.47;100844.27;1703571;83;21025;-67
2022/07/18 05:15:14;;;;;;;0.88;0.20;;;;;;;21.80;49.53;100848.06;1687737;84;20971;-69
2022/07/18 05:17:43;;;;;;;1.35;0.30;;;;;;;21.57;50.61;100843.95;1693107;84;21018;-68
2022/07/18 05:20:13;;;;;;;2.47;0.20;;;;;;;21.53;50.92;100822.47;1688986;84;21010;-69
2022/07/18 05:22:43;;;;;;;1.37;0.30;;;;;;;21.80;50.48;100840.73;1692786;82;21086;-68
2022/07/18 05:25:12;;;;;;;0.40;0.28;;;;;;;21.95;49.55;100840.94;1693462;83;21034;-69
2022/07/18 05:27:40;;;;;;;0.40;0.20;;;;;;;22.05;50.03;100836.70;1693677;83;21181;-70
2022/07/18 05:30:10;;;;;;;0.60;0.37;;;;;;;22.18;49.05;100835.52;1693759;83;21049;-68
2022/07/18 05:32:39;;;;;;;0.85;0.10;;;;;;;22.18;49.09;100839.04;1703560;83;21079;-69
2022/07/18 05:35:08;;;;;;;0.35;0.20;;;;;;;22.28;48.55;100837.00;1689628;82;21002;-74
2022/07/18 05:37:37;;;;;;;2.02;0.30;;;;;;;22.32;48.82;100837.62;1675713;83;21034;-71
2022/07/18 05:40:08;;;;;;;1.27;0.40;;;;;;;22.26;49.06;100837.25;1690159;83;21116;-73
2022/07/18 05:42:35;;;;;;;2.30;0.20;;;;;;;22.16;48.88;100837.12;1687902;83;20979;-72
2022/07/18 05:45:03;;;;;;;1.12;0.62;;;;;;;22.13;48.44;100837.61;1693385;82;21021;-72
2022/07/18 05:47:29;;;;;;;0.40;0.30;;;;;;;22.16;49.98;100835.22;1693564;84;21458;-73
2022/07/18 05:49:56;;;;;;;0.75;0.40;;;;;;;22.25;48.87;100833.42;1692735;83;20995;-71
2022/07/18 05:52:23;;;;;;;1.10;0.68;;;;;;;22.37;49.27;100830.59;1694859;83;21212;-70
2022/07/18 05:54:50;;;;;;;4.47;0.93;;;;;;;22.64;48.62;100827.88;1692063;83;21015;-72
2022/07/18 05:57:16;;;;;;;0.55;0.50;;;;;;;22.91;47.50;100834.11;1694071;83;21162;-75
2022/07/18 05:59:42;;;;;;;0.23;0.20;;;;;;;23.00;47.50;100830.39;1693150;83;21026;-70
2022/07/18 06:02:08;;;;;;;0.70;0.20;;;;;;;23.01;47.42;100829.30;1697161;84;20993;-72
2022/07/18 06:04:35;;;;;;;2.08;0.30;;;;;;;23.03;46.75;100833.97;1693157;84;21086;-72
2022/07/18 06:07:03;;;;;;;0.85;0.20;;;;;;;22.94;46.66;100832.77;1693783;84;21056;-72
2022/07/18 06:09:30;;;;;;;0.45;0.45;;;;;;;22.91;47.15;100830.03;1693258;83;20987;-71
2022/07/18 06:12:01;;;;;;;1.45;0.42;;;;;;;22.94;46.73;100829.53;1690122;83;21005;-72
2022/07/18 06:14:29;;;;;;;6.08;0.20;;;;;;;22.79;47.15;100829.37;1688089;83;21081;-72
2022/07/18 06:16:56;;;;;;;0.62;0.30;;;;;;;22.87;47.12;100833.55;1690740;83;21052;-72
2022/07/18 06:19:22;;;;;;;1.22;0.50;;;;;;;23.06;46.78;100829.38;1689994;83;21098;-71
2022/07/18 06:21:49;;;;;;;1.42;0.20;;;;;;;23.11;46.27;100833.50;1686229;83;21064;-71
2022/07/18 06:24:15;;;;;;;0.88;0.30;;;;;;;23.06;46.90;100821.22;1624699;86;21081;-72
2022/07/18 06:26:42;;;;;;;0.47;0.20;;;;;;;22.97;46.47;100782.52;1691594;83;21075;-70
2022/07/18 06:29:08;;;;;;;1.00;0.30;;;;;;;23.45;45.97;100827.76;1690342;83;21099;-72
2022/07/18 06:31:34;;;;;;;0.62;0.30;;;;;;;23.63;45.85;100835.20;1690195;83;21041;-73
2022/07/18 06:34:01;;;;;;;4.75;0.37;;;;;;;23.62;45.49;100828.95;1692610;83;21013;-73
2022/07/18 06:36:27;;;;;;;1.37;0.28;;;;;;;23.52;45.79;100832.41;1678331;83;21201;-74
2022/07/18 06:38:53;;;;;;;0.70;0.20;;;;;;;23.29;46.68;100830.09;1684351;83;21565;-71
2022/07/18 06:41:20;;;;;;;2.10;0.33;;;;;;;23.23;47.11;100829.23;1687286;83;21605;-74
2022/07/18 06:43:46;;;;;;;0.53;0.30;;;;;;;23.32;46.31;100822.78;1689286;83;21017;-73
2022/07/18 06:46:12;;;;;;;1.75;0.30;;;;;;;23.27;46.73;100822.19;1688898;83;21413;-74
2022/07/18 06:48:38;;;;;;;5.08;0.20;;;;;;;23.37;46.58;100816.54;1691744;84;21070;-72
2022/07/18 06:51:06;;;;;;;0.65;0.30;;;;;;;23.46;46.41;100817.14;1684406;83;21076;-75
2022/07/18 06:53:33;;;;;;;0.68;0.20;;;;;;;23.43;46.80;100817.69;1685114;84;21065;-74
2022/07/18 06:56:04;;;;;;;0.60;0.20;;;;;;;23.48;46.55;100814.16;1689746;83;21593;-76
2022/07/18 06:58:31;;;;;;;0.68;0.10;;;;;;;23.53;47.19;100822.36;1695093;83;21030;-71
2022/07/18 07:00:58;;;;;;;2.55;0.50;;;;;;;23.78;46.12;100822.22;1694219;83;21534;-74
2022/07/18 07:03:26;;;;;;;1.37;0.30;;;;;;;23.90;46.25;100825.04;1694869;83;21058;-72
2022/07/18 07:05:52;;;;;;;1.05;0.20;;;;;;;24.04;46.35;100824.55;1695130;84;21086;-73
2022/07/18 07:08:20;;;;;;;2.77;0.60;;;;;;;24.16;45.53;100825.67;1694853;83;21034;-76
2022/07/18 07:10:46;;;;;;;0.40;0.30;;;;;;;24.15;45.03;100824.86;1694818;83;21009;-72
2022/07/18 07:13:13;;;;;;;2.22;0.55;;;;;;;24.06;45.48;100823.73;1699333;83;21581;-75
2022/07/18 07:15:40;;;;;;;1.05;0.40;;;;;;;23.97;44.76;100824.78;1696070;83;21066;-72
2022/07/18 07:18:09;;;;;;;1.80;0.30;;;;;;;23.85;45.20;100823.65;1694969;84;21018;-75
2022/07/18 07:20:35;;;;;;;0.75;0.23;;;;;;;23.74;45.26;100819.76;1695079;83;21463;-74
2022/07/18 07:23:06;;;;;;;0.50;0.20;;;;;;;23.63;45.73;100826.48;1694113;83;21074;-75
2022/07/18 07:25:31;;;;;;;2.65;0.30;;;;;;;23.56;45.72;100819.65;1675769;83;21030;-72
2022/07/18 07:27:57;;;;;;;0.57;0.40;;;;;;;23.54;46.18;100823.17;1684790;83;21017;-74
2022/07/18 07:30:25;;;;;;;1.20;0.30;;;;;;;23.55;47.48;100822.92;1673948;83;21121;-74
2022/07/18 07:32:51;;;;;;;0.65;0.25;;;;;;;23.63;46.44;100825.68;1682838;84;21093;-74
2022/07/18 07:35:19;;;;;;;2.10;0.20;;;;;;;23.68;45.62;100818.91;1695520;83;20968;-74
2022/07/18 07:37:53;;;;;;;3.92;0.30;;;;;;;23.70;46.05;100833.88;1686709;83;21034;-73
2022/07/18 07:40:21;;;;;;;1.15;0.15;;;;;;;23.66;45.34;100825.16;1691984;83;21046;-72
2022/07/18 07:42:47;;;;;;;1.10;0.10;;;;;;;23.50;45.56;100825.05;1677826;84;21130;-73
2022/07/18 07:45:14;;;;;;;0.82;0.23;;;;;;;23.30;45.98;100823.55;1700909;82;21100;-72
2022/07/18 07:47:41;;;;;;;0.37;0.20;;;;;;;23.05;46.02;100821.47;1715136;82;21595;-72
2022/07/18 07:50:10;;;;;;;0.30;0.10;;;;;;;22.84;46.66;100825.89;1700409;82;20982;-72
2022/07/18 07:52:38;;;;;;;1.85;0.10;;;;;;;22.63;46.83;100824.89;1700848;82;21036;-72
2022/07/18 07:55:07;;;;;;;0.78;0.10;;;;;;;22.53;46.68;100820.99;1711167;82;21017;-71
2022/07/18 07:57:35;;;;;;;1.92;0.20;;;;;;;22.57;47.46;100819.13;1693385;82;21058;-71
2022/07/18 08:00:06;;;;;;;0.20;0.10;;;;;;;22.54;46.58;100827.23;1700445;82;21041;-71
2022/07/18 08:02:34;;;;;;;3.77;0.10;;;;;;;22.54;46.11;100825.33;1697639;82;21509;-71
2022/07/18 08:05:00;;;;;;;0.57;0.10;;;;;;;22.53;45.81;100823.71;1692965;82;21459;-71
2022/07/18 08:07:26;;;;;;;5.12;0.10;;;;;;;22.50;45.75;100830.19;1690967;82;21625;-71
2022/07/18 08:09:53;;;;;;;0.20;0.10;;;;;;;22.46;45.35;100823.09;1704277;82;21129;-71
2022/07/18 08:12:21;;;;;;;0.53;0.10;;;;;;;22.50;44.50;100829.64;1680384;82;21553;-71
2022/07/18 08:14:49;;;;;;;0.25;0.10;;;;;;;22.49;45.09;100824.46;1682771;83;21081;-71
2022/07/18 08:17:15;;;;;;;2.85;0.10;;;;;;;22.52;46.16;100820.70;1672471;83;21068;-71
2022/07/18 08:19:41;;;;;;;0.23;0.10;;;;;;;22.52;45.58;100822.05;1629159;86;21070;-71
2022/07/18 08:22:07;;;;;;;1.35;0.20;;;;;;;22.54;45.63;100815.83;1674574;83;21065;-71
2022/07/18 08:24:33;;;;;;;0.42;0.10;;;;;;;22.54;45.36;100816.37;1694024;83;21137;-72
2022/07/18 08:27:00;;;;;;;0.40;0.10;;;;;;;22.52;45.60;100816.63;1689066;83;21030;-72
2022/07/18 08:29:26;;;;;;;0.23;0.10;;;;;;;22.52;45.30;100817.17;1681978;83;21086;-71
2022/07/18 08:31:52;;;;;;;0.53;0.10;;;;;;;22.34;45.91;100819.72;1638156;86;21051;-72
2022/07/18 08:34:18;;;;;;;0.23;0.10;;;;;;;22.22;46.55;100826.59;1677388;83;21093;-73
2022/07/18 08:36:44;;;;;;;6.60;0.28;;;;;;;22.20;47.20;100821.14;1677402;83;21155;-71
2022/07/18 08:39:10;;;;;;;1.57;0.10;;;;;;;22.24;46.46;100824.98;1672314;83;21706;-72
2022/07/18 08:41:40;;;;;;;0.75;0.10;;;;;;;22.21;46.69;100818.69;1673022;83;21538;-72
2022/07/18 08:44:09;;;;;;;0.55;0.10;;;;;;;22.19;45.59;100823.56;1683019;83;21097;-71
2022/07/18 08:46:39;;;;;;;0.10;0.10;;;;;;;22.13;45.40;100829.47;1686099;83;21031;-72
2022/07/18 08:49:07;;;;;;;1.20;0.10;;;;;;;22.02;46.08;100829.06;1676985;83;21482;-72
2022/07/18 08:51:37;;;;;;;1.00;0.20;;;;;;;21.96;46.13;100821.39;1639406;86;21100;-71
2022/07/18 08:54:05;;;;;;;0.55;0.10;;;;;;;21.97;47.17;100820.33;1685778;83;21070;-72
2022/07/18 08:56:31;;;;;;;0.08;0.00;;;;;;;22.07;46.24;100818.27;1645160;85;20994;-71
2022/07/18 08:59:04;;;;;;;0.10;0.08;;;;;;;22.15;46.05;100819.17;1684041;83;21136;-72
2022/07/18 09:01:31;;;;;;;0.40;0.00;;;;;;;22.18;45.99;100822.75;1680219;83;21455;-72
2022/07/18 09:04:14;;;;;;;0.98;0.00;;;;;;;22.21;45.91;100818.69;1675486;83;21006;-71
2022/07/18 09:06:49;;;;;;;0.80;0.72;;;;;;;22.14;45.24;100831.13;1687045;83;21106;-71
2022/07/18 09:09:17;;;;;;;1.07;0.35;;;;;;;21.91;47.12;100824.88;1641373;85;21164;-71
2022/07/18 09:12:57;;;;;;;1.05;0.10;;;;;;;21.96;46.46;100815.96;1748042;79;22954;-72
2022/07/18 09:15:24;;;;;;;1.67;1.57;;;;;;;22.00;44.88;100821.70;1701234;83;21120;-72
2022/07/18 09:17:55;;;;;;;0.10;0.10;;;;;;;22.00;45.75;100808.98;1695431;83;21530;-70
2022/07/18 09:20:22;;;;;;;0.93;0.35;;;;;;;22.05;45.31;100810.92;1692963;83;21077;-71
2022/07/18 09:22:48;;;;;;;0.60;0.50;;;;;;;22.05;44.80;100804.13;1682009;82;21058;-72
2022/07/18 09:25:22;;;;;;;0.53;0.53;;;;;;;22.07;44.43;100809.59;1647114;85;21036;-74
2022/07/18 09:27:51;;;;;;;2.22;0.28;;;;;;;22.16;44.07;100812.68;1635694;85;21138;-71
2022/07/18 09:30:26;;;;;;;0.30;0.10;;;;;;;22.24;43.35;100804.62;1641771;85;21130;-71
2022/07/18 09:33:08;;;;;;;1.40;0.55;;;;;;;22.27;43.90;100802.25;1647224;85;21070;-72
2022/07/18 09:35:44;;;;;;;0.15;0.10;;;;;;;22.26;44.14;100803.31;1644398;85;21086;-70
2022/07/18 09:38:23;;;;;;;0.23;0.10;;;;;;;22.28;43.47;100814.77;1635409;85;21081;-72
2022/07/18 09:40:54;;;;;;;1.95;1.45;;;;;;;22.27;43.32;100804.97;1642000;85;22174;-72
2022/07/18 09:43:23;;;;;;;0.75;0.75;;;;;;;22.26;43.84;100806.02;1638772;85;21639;-71
2022/07/18 09:45:56;;;;;;;2.15;0.35;;;;;;;22.30;43.49;100805.83;1658868;85;21027;-71
2022/07/18 09:48:26;;;;;;;0.85;0.85;;;;;;;22.37;43.08;100796.65;1654253;85;21014;-72
2022/07/18 09:51:03;;;;;;;2.30;0.30;;;;;;;22.49;43.00;100810.36;1644339;85;21124;-72
2022/07/18 09:53:39;;;;;;;0.10;0.10;;;;;;;22.58;41.18;100803.91;1639104;85;21539;-73
2022/07/18 09:56:12;;;;;;;0.40;0.10;;;;;;;22.58;41.44;100801.19;1653588;82;21338;-73
2022/07/18 09:58:54;;;;;;;1.20;0.42;;;;;;;22.54;42.02;100809.03;1618200;87;21131;-73
2022/07/18 10:01:22;;;;;;;0.30;0.10;;;;;;;22.47;42.76;100811.67;1599061;87;21033;-74
2022/07/18 10:03:49;;;;;;;0.62;0.00;;;;;;;22.40;43.36;100809.73;1588061;88;21535;-74
2022/07/18 10:06:18;;;;;;;0.47;0.10;;;;;;;22.33;43.49;100805.30;1592297;88;21121;-71
2022/07/18 10:08:45;;;;;;;1.52;0.00;;;;;;;22.27;43.63;100803.61;1599612;88;21077;-73
2022/07/18 10:11:13;;;;;;;0.33;0.00;;;;;;;22.23;42.51;100803.00;1589343;88;21084;-73
2022/07/18 10:13:40;;;;;;;2.27;0.30;;;;;;;22.25;41.98;100804.92;1611667;87;21148;-72
2022/07/18 10:16:08;;;;;;;0.25;0.25;;;;;;;22.30;41.79;100805.83;1613715;87;21127;-72
2022/07/18 10:18:38;;;;;;;0.20;0.10;;;;;;;22.33;41.96;100804.48;1610151;87;21083;-72
2022/07/18 10:21:10;;;;;;;1.17;0.03;;;;;;;22.36;41.43;100806.70;1619200;87;21063;-74
2022/07/18 10:23:42;;;;;;;0.40;0.30;;;;;;;22.34;41.92;100801.52;1599532;83;21009;-73
2022/07/18 10:26:21;;;;;;;0.55;0.00;;;;;;;22.42;42.26;100800.78;1568308;89;21544;-72
2022/07/18 10:29:05;;;;;;;0.50;0.10;;;;;;;22.51;41.98;100801.42;1595594;88;21132;-71
2022/07/18 10:31:39;;;;;;;0.20;0.00;;;;;;;22.57;41.72;100798.21;1593359;88;21088;-73
2022/07/18 10:34:10;;;;;;;0.57;0.57;;;;;;;22.62;41.28;100805.58;1593281;84;21823;-72
2022/07/18 10:36:40;;;;;;;2.85;2.33;;;;;;;22.60;41.86;100793.61;1602828;87;21629;-71
2022/07/18 10:39:25;;;;;;;0.88;0.57;;;;;;;22.72;41.02;100791.55;1590146;88;21100;-74
2022/07/18 10:42:03;;;;;;;8.43;7.83;;;;;;;22.78;41.00;100787.53;1594175;88;21101;-72
2022/07/18 10:44:39;;;;;;;2.47;2.10;;;;;;;22.84;41.81;100791.92;1597550;88;21049;-73
2022/07/18 10:47:17;;;;;;;0.10;0.10;;;;;;;22.89;40.83;100795.50;1600945;88;21134;-74
2022/07/18 10:49:58;;;;;;;0.10;0.00;;;;;;;22.94;40.70;100793.35;1595490;88;21101;-73
2022/07/18 10:52:37;;;;;;;0.30;0.30;;;;;;;22.91;40.48;100795.25;1623065;87;21060;-73
2022/07/18 10:55:17;;;;;;;5.20;4.83;;;;;;;22.82;40.99;100787.29;1621191;86;21565;-70
2022/07/18 10:57:54;;;;;;;0.75;0.10;;;;;;;22.79;41.98;100788.61;1624151;87;21089;-71
2022/07/18 11:00:35;;;;;;;0.62;0.53;;;;;;;22.85;40.52;100785.39;1613079;87;21140;-72
2022/07/18 11:03:06;;;;;;;0.30;0.20;;;;;;;22.93;40.41;100787.66;1645743;85;21179;-74
2022/07/18 11:05:51;;;;;;;5.75;5.37;;;;;;;23.00;38.83;100788.77;1653923;85;21005;-72
2022/07/18 11:08:20;;;;;;;0.28;0.28;;;;;;;22.99;39.40;100789.87;1626288;85;21893;-74
2022/07/18 11:11:01;;;;;;;2.08;0.20;;;;;;;22.98;39.50;100783.63;1642463;85;21696;-73
2022/07/18 11:13:39;;;;;;;0.00;0.00;;;;;;;23.03;39.68;100784.19;1611180;85;21033;-72
2022/07/18 11:16:24;;;;;;;5.40;5.03;;;;;;;23.11;39.77;100780.48;1609417;87;21091;-73
2022/07/18 11:18:59;;;;;;;0.60;0.60;;;;;;;23.22;40.42;100785.43;1596827;87;21044;-73
2022/07/18 11:21:34;;;;;;;2.58;0.03;;;;;;;23.35;39.66;100777.36;1630312;87;21076;-74
2022/07/18 11:24:08;;;;;;;0.30;0.20;;;;;;;23.43;38.59;100776.88;1592697;88;21004;-72
2022/07/18 11:26:40;;;;;;;1.12;0.82;;;;;;;23.45;38.61;100780.67;1626766;87;21626;-72
2022/07/18 11:29:11;;;;;;;1.98;1.90;;;;;;;23.38;39.17;100778.20;1626415;87;21114;-72
2022/07/18 11:31:56;;;;;;;0.72;0.17;;;;;;;23.27;39.39;100778.67;1628387;87;21074;-73
2022/07/18 11:34:45;;;;;;;0.10;0.00;;;;;;;23.17;40.20;100780.50;1621566;85;21295;-72
2022/07/18 11:37:13;;;;;;;0.10;0.03;;;;;;;22.95;40.64;100777.34;1628170;86;21088;-74